sensor_id;sensor_type;location;lat;lon;timestamp;P1;durP1;ratioP1;P2;durP2;ratioP2
32172;SDS011;18679;45.190;5.722;2023-07-13T00:00:41;5.45;;;2.10;;
32172;SDS011;18679;45.190;5.722;2023-07-13T00:03:43;4.28;;;2.20;;
32172;SDS011;18679;45.190;5.722;2023-07-13T00:06:44;8.43;;;2.25;;
32172;SDS011;18679;45.190;5.722;2023-07-13T00:09:46;6.72;;;2.17;;
32172;SDS011;18679;45.190;5.722;2023-07-13T00:12:49;5.90;;;2.40;;
32172;SDS011;18679;45.190;5.722;2023-07-13T00:15:50;5.72;;;2.15;;
32172;SDS011;18679;45.190;5.722;2023-07-13T00:18:51;6.78;;;2.03;;
32172;SDS011;18679;45.190;5.722;2023-07-13T00:21:52;4.72;;;1.80;;
32172;SDS011;18679;45.190;5.722;2023-07-13T00:24:56;2.10;;;1.50;;
32172;SDS011;18679;45.190;5.722;2023-07-13T00:27:56;3.58;;;2.00;;
32172;SDS011;18679;45.190;5.722;2023-07-13T00:30:57;4.35;;;1.58;;
32172;SDS011;18679;45.190;5.722;2023-07-13T00:33:59;3.55;;;1.67;;
32172;SDS011;18679;45.190;5.722;2023-07-13T00:37:00;2.45;;;1.60;;
32172;SDS011;18679;45.190;5.722;2023-07-13T00:40:03;3.78;;;1.85;;
32172;SDS011;18679;45.190;5.722;2023-07-13T00:43:14;3.47;;;2.15;;
32172;SDS011;18679;45.190;5.722;2023-07-13T00:46:23;7.78;;;3.05;;
32172;SDS011;18679;45.190;5.722;2023-07-13T00:49:29;4.78;;;2.55;;
32172;SDS011;18679;45.190;5.722;2023-07-13T00:52:33;5.13;;;2.72;;
32172;SDS011;18679;45.190;5.722;2023-07-13T00:55:37;4.78;;;2.80;;
32172;SDS011;18679;45.190;5.722;2023-07-13T00:58:40;6.07;;;3.10;;
32172;SDS011;18679;45.190;5.722;2023-07-13T01:01:41;5.13;;;2.95;;
32172;SDS011;18679;45.190;5.722;2023-07-13T01:04:42;5.20;;;2.72;;
32172;SDS011;18679;45.190;5.722;2023-07-13T01:07:44;5.15;;;2.47;;
32172;SDS011;18679;45.190;5.722;2023-07-13T01:10:56;12.20;;;3.10;;
32172;SDS011;18679;45.190;5.722;2023-07-13T01:13:58;5.28;;;2.88;;
32172;SDS011;18679;45.190;5.722;2023-07-13T01:16:59;4.53;;;1.30;;
32172;SDS011;18679;45.190;5.722;2023-07-13T01:20:00;2.72;;;1.40;;
32172;SDS011;18679;45.190;5.722;2023-07-13T01:23:09;5.20;;;1.40;;
32172;SDS011;18679;45.190;5.722;2023-07-13T01:26:13;2.25;;;1.83;;
32172;SDS011;18679;45.190;5.722;2023-07-13T01:29:14;2.53;;;1.33;;
32172;SDS011;18679;45.190;5.722;2023-07-13T01:32:17;3.05;;;1.38;;
32172;SDS011;18679;45.190;5.722;2023-07-13T01:35:22;2.70;;;1.33;;
32172;SDS011;18679;45.190;5.722;2023-07-13T01:38:25;1.80;;;1.23;;
32172;SDS011;18679;45.190;5.722;2023-07-13T01:41:26;3.38;;;1.17;;
32172;SDS011;18679;45.190;5.722;2023-07-13T01:44:28;4.65;;;1.67;;
32172;SDS011;18679;45.190;5.722;2023-07-13T01:47:29;2.97;;;1.20;;
32172;SDS011;18679;45.190;5.722;2023-07-13T01:50:31;2.30;;;1.30;;
32172;SDS011;18679;45.190;5.722;2023-07-13T01:53:33;2.83;;;1.23;;
32172;SDS011;18679;45.190;5.722;2023-07-13T01:56:36;1.92;;;1.30;;
32172;SDS011;18679;45.190;5.722;2023-07-13T01:59:37;2.78;;;1.00;;
32172;SDS011;18679;45.190;5.722;2023-07-13T02:02:40;4.28;;;1.20;;
32172;SDS011;18679;45.190;5.722;2023-07-13T02:05:40;1.75;;;1.10;;
32172;SDS011;18679;45.190;5.722;2023-07-13T02:08:43;2.17;;;1.33;;
32172;SDS011;18679;45.190;5.722;2023-07-13T02:11:44;7.15;;;1.58;;
32172;SDS011;18679;45.190;5.722;2023-07-13T02:14:45;2.70;;;1.20;;
32172;SDS011;18679;45.190;5.722;2023-07-13T02:17:46;2.13;;;0.82;;
32172;SDS011;18679;45.190;5.722;2023-07-13T02:20:47;2.45;;;1.42;;
32172;SDS011;18679;45.190;5.722;2023-07-13T02:23:48;3.17;;;0.98;;
32172;SDS011;18679;45.190;5.722;2023-07-13T02:26:50;3.00;;;1.30;;
32172;SDS011;18679;45.190;5.722;2023-07-13T02:29:51;1.42;;;0.95;;
32172;SDS011;18679;45.190;5.722;2023-07-13T02:32:54;2.03;;;0.90;;
32172;SDS011;18679;45.190;5.722;2023-07-13T02:35:56;4.57;;;1.15;;
32172;SDS011;18679;45.190;5.722;2023-07-13T02:39:00;4.25;;;1.00;;
32172;SDS011;18679;45.190;5.722;2023-07-13T02:42:03;4.38;;;0.90;;
32172;SDS011;18679;45.190;5.722;2023-07-13T02:45:04;3.20;;;1.10;;
32172;SDS011;18679;45.190;5.722;2023-07-13T02:48:06;2.55;;;1.23;;
32172;SDS011;18679;45.190;5.722;2023-07-13T02:51:07;2.60;;;1.20;;
32172;SDS011;18679;45.190;5.722;2023-07-13T02:54:09;2.05;;;0.98;;
32172;SDS011;18679;45.190;5.722;2023-07-13T02:57:12;3.03;;;0.93;;
32172;SDS011;18679;45.190;5.722;2023-07-13T03:00:13;2.58;;;1.10;;
32172;SDS011;18679;45.190;5.722;2023-07-13T03:03:16;3.38;;;1.20;;
32172;SDS011;18679;45.190;5.722;2023-07-13T03:06:18;0.95;;;0.65;;
32172;SDS011;18679;45.190;5.722;2023-07-13T03:09:24;2.95;;;0.90;;
32172;SDS011;18679;45.190;5.722;2023-07-13T03:12:27;1.38;;;1.02;;
32172;SDS011;18679;45.190;5.722;2023-07-13T03:15:28;3.38;;;0.93;;
32172;SDS011;18679;45.190;5.722;2023-07-13T03:18:31;2.40;;;1.05;;
32172;SDS011;18679;45.190;5.722;2023-07-13T03:21:37;1.92;;;1.00;;
32172;SDS011;18679;45.190;5.722;2023-07-13T03:24:38;2.28;;;1.15;;
32172;SDS011;18679;45.190;5.722;2023-07-13T03:27:39;1.48;;;0.82;;
32172;SDS011;18679;45.190;5.722;2023-07-13T03:30:42;2.30;;;1.20;;
32172;SDS011;18679;45.190;5.722;2023-07-13T03:33:43;2.17;;;1.10;;
32172;SDS011;18679;45.190;5.722;2023-07-13T03:36:46;5.90;;;1.35;;
32172;SDS011;18679;45.190;5.722;2023-07-13T03:39:47;21.02;;;4.50;;
32172;SDS011;18679;45.190;5.722;2023-07-13T03:42:49;4.97;;;1.27;;
32172;SDS011;18679;45.190;5.722;2023-07-13T03:45:52;1.15;;;1.05;;
32172;SDS011;18679;45.190;5.722;2023-07-13T03:48:55;1.48;;;0.93;;
32172;SDS011;18679;45.190;5.722;2023-07-13T03:51:58;1.38;;;0.80;;
32172;SDS011;18679;45.190;5.722;2023-07-13T03:54:59;5.93;;;0.82;;
32172;SDS011;18679;45.190;5.722;2023-07-13T03:58:01;2.45;;;0.73;;
32172;SDS011;18679;45.190;5.722;2023-07-13T04:01:32;5.03;;;0.90;;
32172;SDS011;18679;45.190;5.722;2023-07-13T04:04:35;1.40;;;0.60;;
32172;SDS011;18679;45.190;5.722;2023-07-13T04:07:36;2.33;;;0.75;;
32172;SDS011;18679;45.190;5.722;2023-07-13T04:10:37;2.08;;;0.95;;
32172;SDS011;18679;45.190;5.722;2023-07-13T04:13:38;0.98;;;0.80;;
32172;SDS011;18679;45.190;5.722;2023-07-13T04:16:39;2.35;;;0.80;;
32172;SDS011;18679;45.190;5.722;2023-07-13T04:19:41;1.13;;;0.50;;
32172;SDS011;18679;45.190;5.722;2023-07-13T04:22:43;1.27;;;0.80;;
32172;SDS011;18679;45.190;5.722;2023-07-13T04:25:44;0.60;;;0.60;;
32172;SDS011;18679;45.190;5.722;2023-07-13T04:28:52;1.83;;;0.70;;
32172;SDS011;18679;45.190;5.722;2023-07-13T04:31:53;1.17;;;0.80;;
32172;SDS011;18679;45.190;5.722;2023-07-13T04:34:54;1.67;;;0.82;;
32172;SDS011;18679;45.190;5.722;2023-07-13T04:37:55;0.60;;;0.60;;
32172;SDS011;18679;45.190;5.722;2023-07-13T04:40:58;0.40;;;0.40;;
32172;SDS011;18679;45.190;5.722;2023-07-13T04:44:02;5.45;;;1.15;;
32172;SDS011;18679;45.190;5.722;2023-07-13T04:47:03;1.60;;;0.77;;
32172;SDS011;18679;45.190;5.722;2023-07-13T04:50:07;0.98;;;0.57;;
32172;SDS011;18679;45.190;5.722;2023-07-13T04:53:09;1.10;;;0.55;;
32172;SDS011;18679;45.190;5.722;2023-07-13T04:56:10;0.75;;;0.50;;
32172;SDS011;18679;45.190;5.722;2023-07-13T04:59:12;1.80;;;0.60;;
32172;SDS011;18679;45.190;5.722;2023-07-13T05:02:12;1.83;;;0.60;;
32172;SDS011;18679;45.190;5.722;2023-07-13T05:05:14;1.60;;;0.82;;
32172;SDS011;18679;45.190;5.722;2023-07-13T05:08:15;1.85;;;0.70;;
32172;SDS011;18679;45.190;5.722;2023-07-13T05:11:17;1.85;;;0.77;;
32172;SDS011;18679;45.190;5.722;2023-07-13T05:14:18;0.90;;;0.65;;
32172;SDS011;18679;45.190;5.722;2023-07-13T05:17:19;2.22;;;0.60;;
32172;SDS011;18679;45.190;5.722;2023-07-13T05:20:21;1.77;;;0.75;;
32172;SDS011;18679;45.190;5.722;2023-07-13T05:23:21;1.48;;;0.82;;
32172;SDS011;18679;45.190;5.722;2023-07-13T05:26:22;8.20;;;0.75;;
32172;SDS011;18679;45.190;5.722;2023-07-13T05:29:23;3.10;;;0.65;;
32172;SDS011;18679;45.190;5.722;2023-07-13T05:32:24;0.77;;;0.60;;
32172;SDS011;18679;45.190;5.722;2023-07-13T05:35:25;0.85;;;0.82;;
32172;SDS011;18679;45.190;5.722;2023-07-13T05:38:27;2.55;;;0.55;;
32172;SDS011;18679;45.190;5.722;2023-07-13T05:41:29;1.77;;;0.73;;
32172;SDS011;18679;45.190;5.722;2023-07-13T05:44:30;0.68;;;0.60;;
32172;SDS011;18679;45.190;5.722;2023-07-13T05:47:31;2.35;;;0.88;;
32172;SDS011;18679;45.190;5.722;2023-07-13T05:50:32;2.33;;;0.73;;
32172;SDS011;18679;45.190;5.722;2023-07-13T05:53:34;0.82;;;0.70;;
32172;SDS011;18679;45.190;5.722;2023-07-13T05:56:36;0.70;;;0.60;;
32172;SDS011;18679;45.190;5.722;2023-07-13T05:59:37;1.27;;;0.57;;
32172;SDS011;18679;45.190;5.722;2023-07-13T06:02:38;2.03;;;0.68;;
32172;SDS011;18679;45.190;5.722;2023-07-13T06:05:39;3.25;;;0.98;;
32172;SDS011;18679;45.190;5.722;2023-07-13T06:08:40;1.17;;;0.80;;
32172;SDS011;18679;45.190;5.722;2023-07-13T06:11:41;8.40;;;1.17;;
32172;SDS011;18679;45.190;5.722;2023-07-13T06:14:42;0.63;;;0.52;;
32172;SDS011;18679;45.190;5.722;2023-07-13T06:17:43;3.22;;;0.88;;
32172;SDS011;18679;45.190;5.722;2023-07-13T06:20:45;1.55;;;0.55;;
32172;SDS011;18679;45.190;5.722;2023-07-13T06:23:46;2.45;;;0.70;;
32172;SDS011;18679;45.190;5.722;2023-07-13T06:26:48;5.28;;;0.70;;
32172;SDS011;18679;45.190;5.722;2023-07-13T06:29:49;1.48;;;0.75;;
32172;SDS011;18679;45.190;5.722;2023-07-13T06:32:50;0.60;;;0.60;;
32172;SDS011;18679;45.190;5.722;2023-07-13T06:35:52;0.50;;;0.50;;
32172;SDS011;18679;45.190;5.722;2023-07-13T06:38:54;4.07;;;0.90;;
32172;SDS011;18679;45.190;5.722;2023-07-13T06:41:55;5.65;;;0.70;;
32172;SDS011;18679;45.190;5.722;2023-07-13T06:44:56;1.85;;;0.93;;
32172;SDS011;18679;45.190;5.722;2023-07-13T06:47:57;1.83;;;0.90;;
32172;SDS011;18679;45.190;5.722;2023-07-13T06:50:58;1.13;;;0.73;;
32172;SDS011;18679;45.190;5.722;2023-07-13T06:53:59;2.75;;;0.70;;
32172;SDS011;18679;45.190;5.722;2023-07-13T06:57:01;1.45;;;0.90;;
32172;SDS011;18679;45.190;5.722;2023-07-13T07:00:02;0.93;;;0.80;;
32172;SDS011;18679;45.190;5.722;2023-07-13T07:03:04;0.50;;;0.43;;
32172;SDS011;18679;45.190;5.722;2023-07-13T07:06:16;1.73;;;0.70;;
32172;SDS011;18679;45.190;5.722;2023-07-13T07:09:19;2.58;;;0.70;;
32172;SDS011;18679;45.190;5.722;2023-07-13T07:12:20;2.60;;;0.98;;
32172;SDS011;18679;45.190;5.722;2023-07-13T07:15:21;1.15;;;0.80;;
32172;SDS011;18679;45.190;5.722;2023-07-13T07:18:22;0.80;;;0.60;;
32172;SDS011;18679;45.190;5.722;2023-07-13T07:21:24;1.50;;;0.73;;
32172;SDS011;18679;45.190;5.722;2023-07-13T07:24:26;1.20;;;0.80;;
32172;SDS011;18679;45.190;5.722;2023-07-13T07:27:27;1.80;;;0.60;;
32172;SDS011;18679;45.190;5.722;2023-07-13T07:30:28;0.50;;;0.50;;
32172;SDS011;18679;45.190;5.722;2023-07-13T07:33:29;1.15;;;0.70;;
32172;SDS011;18679;45.190;5.722;2023-07-13T07:36:30;2.75;;;0.63;;
32172;SDS011;18679;45.190;5.722;2023-07-13T07:39:33;3.95;;;0.70;;
32172;SDS011;18679;45.190;5.722;2023-07-13T07:42:34;0.98;;;0.63;;
32172;SDS011;18679;45.190;5.722;2023-07-13T07:45:35;5.30;;;0.90;;
32172;SDS011;18679;45.190;5.722;2023-07-13T07:48:38;2.58;;;0.98;;
32172;SDS011;18679;45.190;5.722;2023-07-13T07:51:39;2.10;;;0.90;;
32172;SDS011;18679;45.190;5.722;2023-07-13T07:54:41;1.58;;;0.82;;
32172;SDS011;18679;45.190;5.722;2023-07-13T07:57:43;2.75;;;1.05;;
32172;SDS011;18679;45.190;5.722;2023-07-13T08:00:44;6.43;;;0.98;;
32172;SDS011;18679;45.190;5.722;2023-07-13T08:03:45;1.70;;;0.75;;
32172;SDS011;18679;45.190;5.722;2023-07-13T08:06:46;3.70;;;1.83;;
32172;SDS011;18679;45.190;5.722;2023-07-13T08:09:48;5.43;;;1.20;;
32172;SDS011;18679;45.190;5.722;2023-07-13T08:12:52;2.72;;;0.90;;
32172;SDS011;18679;45.190;5.722;2023-07-13T08:15:53;1.42;;;0.63;;
32172;SDS011;18679;45.190;5.722;2023-07-13T08:18:54;0.75;;;0.65;;
32172;SDS011;18679;45.190;5.722;2023-07-13T08:21:55;0.60;;;0.55;;
32172;SDS011;18679;45.190;5.722;2023-07-13T08:24:57;2.58;;;0.75;;
32172;SDS011;18679;45.190;5.722;2023-07-13T08:27:59;1.30;;;0.70;;
32172;SDS011;18679;45.190;5.722;2023-07-13T08:31:02;1.77;;;0.73;;
32172;SDS011;18679;45.190;5.722;2023-07-13T08:34:04;1.02;;;0.77;;
32172;SDS011;18679;45.190;5.722;2023-07-13T08:37:05;1.77;;;0.70;;
32172;SDS011;18679;45.190;5.722;2023-07-13T08:40:11;3.70;;;1.02;;
32172;SDS011;18679;45.190;5.722;2023-07-13T08:43:16;1.27;;;0.90;;
32172;SDS011;18679;45.190;5.722;2023-07-13T08:49:31;0.98;;;0.70;;
32172;SDS011;18679;45.190;5.722;2023-07-13T08:52:37;0.75;;;0.70;;
32172;SDS011;18679;45.190;5.722;2023-07-13T08:55:41;10.55;;;0.95;;
32172;SDS011;18679;45.190;5.722;2023-07-13T08:58:44;1.42;;;0.88;;
32172;SDS011;18679;45.190;5.722;2023-07-13T09:05:16;3.90;;;1.02;;
32172;SDS011;18679;45.190;5.722;2023-07-13T09:08:30;1.95;;;0.80;;
32172;SDS011;18679;45.190;5.722;2023-07-13T09:11:52;3.97;;;0.90;;
32172;SDS011;18679;45.190;5.722;2023-07-13T09:15:03;2.97;;;0.88;;
32172;SDS011;18679;45.190;5.722;2023-07-13T09:18:13;2.55;;;0.60;;
32172;SDS011;18679;45.190;5.722;2023-07-13T09:21:25;2.60;;;0.82;;
32172;SDS011;18679;45.190;5.722;2023-07-13T09:24:38;0.90;;;0.80;;
32172;SDS011;18679;45.190;5.722;2023-07-13T09:27:51;2.08;;;0.85;;
32172;SDS011;18679;45.190;5.722;2023-07-13T09:31:03;0.93;;;0.57;;
32172;SDS011;18679;45.190;5.722;2023-07-13T09:34:08;3.70;;;1.00;;
32172;SDS011;18679;45.190;5.722;2023-07-13T09:37:11;1.52;;;0.82;;
32172;SDS011;18679;45.190;5.722;2023-07-13T09:40:23;4.68;;;0.98;;
32172;SDS011;18679;45.190;5.722;2023-07-13T09:43:31;2.42;;;1.00;;
32172;SDS011;18679;45.190;5.722;2023-07-13T09:46:32;1.90;;;1.02;;
32172;SDS011;18679;45.190;5.722;2023-07-13T09:49:35;1.27;;;0.90;;
32172;SDS011;18679;45.190;5.722;2023-07-13T09:52:44;2.97;;;0.77;;
32172;SDS011;18679;45.190;5.722;2023-07-13T09:55:47;10.70;;;1.30;;
32172;SDS011;18679;45.190;5.722;2023-07-13T09:58:48;2.75;;;1.30;;
32172;SDS011;18679;45.190;5.722;2023-07-13T10:01:49;3.33;;;0.90;;
32172;SDS011;18679;45.190;5.722;2023-07-13T10:04:58;3.33;;;1.17;;
32172;SDS011;18679;45.190;5.722;2023-07-13T10:08:01;5.55;;;1.15;;
32172;SDS011;18679;45.190;5.722;2023-07-13T10:11:14;9.63;;;1.38;;
32172;SDS011;18679;45.190;5.722;2023-07-13T10:14:22;1.17;;;0.80;;
32172;SDS011;18679;45.190;5.722;2023-07-13T10:17:26;1.75;;;0.75;;
32172;SDS011;18679;45.190;5.722;2023-07-13T10:20:33;4.10;;;1.08;;
32172;SDS011;18679;45.190;5.722;2023-07-13T10:23:33;1.67;;;0.90;;
32172;SDS011;18679;45.190;5.722;2023-07-13T10:26:36;2.35;;;0.80;;
32172;SDS011;18679;45.190;5.722;2023-07-13T10:29:43;3.53;;;1.13;;
32172;SDS011;18679;45.190;5.722;2023-07-13T10:33:00;3.17;;;0.90;;
32172;SDS011;18679;45.190;5.722;2023-07-13T10:39:34;1.40;;;0.85;;
32172;SDS011;18679;45.190;5.722;2023-07-13T10:42:38;1.58;;;1.00;;
32172;SDS011;18679;45.190;5.722;2023-07-13T10:45:42;5.30;;;1.23;;
32172;SDS011;18679;45.190;5.722;2023-07-13T10:48:47;2.42;;;1.10;;
32172;SDS011;18679;45.190;5.722;2023-07-13T10:51:52;2.65;;;1.20;;
32172;SDS011;18679;45.190;5.722;2023-07-13T10:54:53;3.30;;;1.33;;
32172;SDS011;18679;45.190;5.722;2023-07-13T10:57:55;2.60;;;1.10;;
32172;SDS011;18679;45.190;5.722;2023-07-13T11:01:12;5.18;;;0.80;;
32172;SDS011;18679;45.190;5.722;2023-07-13T11:04:15;2.63;;;1.17;;
32172;SDS011;18679;45.190;5.722;2023-07-13T11:07:51;4.75;;;0.73;;
32172;SDS011;18679;45.190;5.722;2023-07-13T11:10:55;1.10;;;0.98;;
32172;SDS011;18679;45.190;5.722;2023-07-13T11:14:01;4.03;;;1.67;;
32172;SDS011;18679;45.190;5.722;2023-07-13T11:20:32;0.98;;;0.77;;
32172;SDS011;18679;45.190;5.722;2023-07-13T11:23:35;2.00;;;0.70;;
32172;SDS011;18679;45.190;5.722;2023-07-13T11:26:52;1.38;;;0.90;;
32172;SDS011;18679;45.190;5.722;2023-07-13T11:29:53;2.63;;;1.20;;
32172;SDS011;18679;45.190;5.722;2023-07-13T11:33:49;2.65;;;1.23;;
32172;SDS011;18679;45.190;5.722;2023-07-13T11:36:53;2.58;;;0.90;;
32172;SDS011;18679;45.190;5.722;2023-07-13T11:39:57;1.50;;;0.80;;
32172;SDS011;18679;45.190;5.722;2023-07-13T11:42:59;4.60;;;1.67;;
32172;SDS011;18679;45.190;5.722;2023-07-13T11:46:14;1.17;;;0.75;;
32172;SDS011;18679;45.190;5.722;2023-07-13T11:49:23;1.50;;;0.93;;
32172;SDS011;18679;45.190;5.722;2023-07-13T11:52:30;3.70;;;0.95;;
32172;SDS011;18679;45.190;5.722;2023-07-13T11:55:34;10.77;;;1.00;;
32172;SDS011;18679;45.190;5.722;2023-07-13T11:58:38;0.93;;;0.73;;
32172;SDS011;18679;45.190;5.722;2023-07-13T12:01:46;3.05;;;0.95;;
32172;SDS011;18679;45.190;5.722;2023-07-13T12:04:50;1.98;;;1.33;;
32172;SDS011;18679;45.190;5.722;2023-07-13T12:07:52;3.00;;;0.80;;
32172;SDS011;18679;45.190;5.722;2023-07-13T12:10:59;3.30;;;1.15;;
32172;SDS011;18679;45.190;5.722;2023-07-13T12:14:05;5.05;;;0.85;;
32172;SDS011;18679;45.190;5.722;2023-07-13T12:17:15;1.20;;;0.75;;
32172;SDS011;18679;45.190;5.722;2023-07-13T12:20:24;4.55;;;0.85;;
32172;SDS011;18679;45.190;5.722;2023-07-13T12:23:30;1.52;;;0.90;;
32172;SDS011;18679;45.190;5.722;2023-07-13T12:26:33;4.83;;;0.90;;
32172;SDS011;18679;45.190;5.722;2023-07-13T12:29:34;1.17;;;0.80;;
32172;SDS011;18679;45.190;5.722;2023-07-13T12:32:35;3.35;;;1.00;;
32172;SDS011;18679;45.190;5.722;2023-07-13T12:35:49;1.58;;;0.80;;
32172;SDS011;18679;45.190;5.722;2023-07-13T12:38:52;1.38;;;0.75;;
32172;SDS011;18679;45.190;5.722;2023-07-13T12:41:54;1.98;;;0.90;;
32172;SDS011;18679;45.190;5.722;2023-07-13T12:45:18;1.25;;;0.65;;
32172;SDS011;18679;45.190;5.722;2023-07-13T12:48:21;7.33;;;1.10;;
32172;SDS011;18679;45.190;5.722;2023-07-13T12:51:24;4.18;;;1.02;;
32172;SDS011;18679;45.190;5.722;2023-07-13T12:54:26;1.85;;;0.80;;
32172;SDS011;18679;45.190;5.722;2023-07-13T12:57:28;2.08;;;0.90;;
32172;SDS011;18679;45.190;5.722;2023-07-13T13:00:35;2.60;;;0.80;;
32172;SDS011;18679;45.190;5.722;2023-07-13T13:03:49;6.70;;;0.80;;
32172;SDS011;18679;45.190;5.722;2023-07-13T13:07:03;2.35;;;0.90;;
32172;SDS011;18679;45.190;5.722;2023-07-13T13:10:13;2.38;;;0.60;;
32172;SDS011;18679;45.190;5.722;2023-07-13T13:13:15;5.63;;;0.90;;
32172;SDS011;18679;45.190;5.722;2023-07-13T13:16:23;1.10;;;0.60;;
32172;SDS011;18679;45.190;5.722;2023-07-13T13:19:37;3.63;;;0.93;;
32172;SDS011;18679;45.190;5.722;2023-07-13T13:22:39;3.95;;;1.63;;
32172;SDS011;18679;45.190;5.722;2023-07-13T13:25:40;1.50;;;0.70;;
32172;SDS011;18679;45.190;5.722;2023-07-13T13:28:42;2.72;;;0.80;;
32172;SDS011;18679;45.190;5.722;2023-07-13T13:31:44;3.70;;;0.70;;
32172;SDS011;18679;45.190;5.722;2023-07-13T13:34:46;1.55;;;0.65;;
32172;SDS011;18679;45.190;5.722;2023-07-13T13:37:47;2.05;;;0.90;;
32172;SDS011;18679;45.190;5.722;2023-07-13T13:40:50;1.63;;;0.50;;
32172;SDS011;18679;45.190;5.722;2023-07-13T13:43:51;3.92;;;0.75;;
32172;SDS011;18679;45.190;5.722;2023-07-13T13:46:53;1.02;;;0.70;;
32172;SDS011;18679;45.190;5.722;2023-07-13T13:49:55;3.05;;;0.73;;
32172;SDS011;18679;45.190;5.722;2023-07-13T13:52:57;0.93;;;0.47;;
32172;SDS011;18679;45.190;5.722;2023-07-13T13:55:57;1.00;;;0.50;;
32172;SDS011;18679;45.190;5.722;2023-07-13T13:58:59;1.02;;;0.70;;
32172;SDS011;18679;45.190;5.722;2023-07-13T14:02:00;2.55;;;1.10;;
32172;SDS011;18679;45.190;5.722;2023-07-13T14:05:02;2.72;;;0.60;;
32172;SDS011;18679;45.190;5.722;2023-07-13T14:08:04;2.28;;;0.90;;
32172;SDS011;18679;45.190;5.722;2023-07-13T14:11:07;8.93;;;0.93;;
32172;SDS011;18679;45.190;5.722;2023-07-13T14:14:14;0.88;;;0.65;;
32172;SDS011;18679;45.190;5.722;2023-07-13T14:17:24;4.43;;;0.80;;
32172;SDS011;18679;45.190;5.722;2023-07-13T14:20:27;1.83;;;1.13;;
32172;SDS011;18679;45.190;5.722;2023-07-13T14:23:30;6.70;;;1.05;;
32172;SDS011;18679;45.190;5.722;2023-07-13T14:26:32;0.93;;;0.70;;
32172;SDS011;18679;45.190;5.722;2023-07-13T14:29:39;1.15;;;0.70;;
32172;SDS011;18679;45.190;5.722;2023-07-13T14:32:41;1.85;;;0.60;;
32172;SDS011;18679;45.190;5.722;2023-07-13T14:35:43;2.70;;;0.85;;
32172;SDS011;18679;45.190;5.722;2023-07-13T14:38:44;1.30;;;0.68;;
32172;SDS011;18679;45.190;5.722;2023-07-13T14:41:45;0.63;;;0.63;;
32172;SDS011;18679;45.190;5.722;2023-07-13T14:44:50;1.02;;;0.80;;
32172;SDS011;18679;45.190;5.722;2023-07-13T14:47:52;4.25;;;0.85;;
32172;SDS011;18679;45.190;5.722;2023-07-13T14:50:54;3.38;;;0.63;;
32172;SDS011;18679;45.190;5.722;2023-07-13T14:53:57;1.83;;;0.77;;
32172;SDS011;18679;45.190;5.722;2023-07-13T14:57:00;1.63;;;0.50;;
32172;SDS011;18679;45.190;5.722;2023-07-13T15:00:01;1.02;;;0.60;;
32172;SDS011;18679;45.190;5.722;2023-07-13T15:03:03;1.27;;;0.73;;
32172;SDS011;18679;45.190;5.722;2023-07-13T15:06:08;1.10;;;0.60;;
32172;SDS011;18679;45.190;5.722;2023-07-13T15:09:12;1.97;;;0.50;;
32172;SDS011;18679;45.190;5.722;2023-07-13T15:12:13;0.52;;;0.50;;
32172;SDS011;18679;45.190;5.722;2023-07-13T15:15:15;0.73;;;0.73;;
32172;SDS011;18679;45.190;5.722;2023-07-13T15:18:17;1.65;;;0.65;;
32172;SDS011;18679;45.190;5.722;2023-07-13T15:21:22;2.88;;;0.65;;
32172;SDS011;18679;45.190;5.722;2023-07-13T15:24:25;2.13;;;0.80;;
32172;SDS011;18679;45.190;5.722;2023-07-13T15:27:26;2.60;;;0.73;;
32172;SDS011;18679;45.190;5.722;2023-07-13T15:30:28;0.85;;;0.70;;
32172;SDS011;18679;45.190;5.722;2023-07-13T15:33:31;2.92;;;0.80;;
32172;SDS011;18679;45.190;5.722;2023-07-13T15:36:33;2.60;;;0.50;;
32172;SDS011;18679;45.190;5.722;2023-07-13T15:39:35;3.47;;;0.70;;
32172;SDS011;18679;45.190;5.722;2023-07-13T15:42:38;9.98;;;0.82;;
32172;SDS011;18679;45.190;5.722;2023-07-13T15:45:42;2.15;;;0.55;;
32172;SDS011;18679;45.190;5.722;2023-07-13T15:48:51;2.58;;;0.60;;
32172;SDS011;18679;45.190;5.722;2023-07-13T15:51:57;3.28;;;0.70;;
32172;SDS011;18679;45.190;5.722;2023-07-13T15:54:59;1.70;;;0.68;;
32172;SDS011;18679;45.190;5.722;2023-07-13T15:58:01;0.80;;;0.63;;
32172;SDS011;18679;45.190;5.722;2023-07-13T16:01:02;2.13;;;0.75;;
32172;SDS011;18679;45.190;5.722;2023-07-13T16:04:04;1.40;;;0.73;;
32172;SDS011;18679;45.190;5.722;2023-07-13T16:07:07;1.70;;;0.50;;
32172;SDS011;18679;45.190;5.722;2023-07-13T16:10:14;1.85;;;0.90;;
32172;SDS011;18679;45.190;5.722;2023-07-13T16:13:32;1.83;;;0.77;;
32172;SDS011;18679;45.190;5.722;2023-07-13T16:16:33;2.35;;;0.88;;
32172;SDS011;18679;45.190;5.722;2023-07-13T16:19:34;6.47;;;0.68;;
32172;SDS011;18679;45.190;5.722;2023-07-13T16:22:35;1.10;;;0.77;;
32172;SDS011;18679;45.190;5.722;2023-07-13T16:25:38;1.48;;;0.70;;
32172;SDS011;18679;45.190;5.722;2023-07-13T16:28:40;1.73;;;0.93;;
32172;SDS011;18679;45.190;5.722;2023-07-13T16:34:57;1.30;;;0.75;;
32172;SDS011;18679;45.190;5.722;2023-07-13T16:37:58;2.45;;;1.05;;
32172;SDS011;18679;45.190;5.722;2023-07-13T16:40:59;2.70;;;0.75;;
32172;SDS011;18679;45.190;5.722;2023-07-13T16:44:00;0.82;;;0.82;;
32172;SDS011;18679;45.190;5.722;2023-07-13T16:47:01;5.57;;;0.93;;
32172;SDS011;18679;45.190;5.722;2023-07-13T16:50:09;1.38;;;0.63;;
32172;SDS011;18679;45.190;5.722;2023-07-13T16:53:27;1.80;;;0.80;;
32172;SDS011;18679;45.190;5.722;2023-07-13T16:56:31;1.45;;;0.60;;
32172;SDS011;18679;45.190;5.722;2023-07-13T16:59:35;2.08;;;0.80;;
32172;SDS011;18679;45.190;5.722;2023-07-13T17:02:37;2.00;;;0.77;;
32172;SDS011;18679;45.190;5.722;2023-07-13T17:05:42;4.20;;;0.75;;
32172;SDS011;18679;45.190;5.722;2023-07-13T17:08:45;3.08;;;0.80;;
32172;SDS011;18679;45.190;5.722;2023-07-13T17:11:46;1.02;;;0.63;;
32172;SDS011;18679;45.190;5.722;2023-07-13T17:14:47;1.58;;;0.80;;
32172;SDS011;18679;45.190;5.722;2023-07-13T17:17:48;3.50;;;0.98;;
32172;SDS011;18679;45.190;5.722;2023-07-13T17:20:51;0.82;;;0.50;;
32172;SDS011;18679;45.190;5.722;2023-07-13T17:23:52;2.70;;;1.02;;
32172;SDS011;18679;45.190;5.722;2023-07-13T17:26:54;3.15;;;0.90;;
32172;SDS011;18679;45.190;5.722;2023-07-13T17:29:56;1.02;;;0.77;;
32172;SDS011;18679;45.190;5.722;2023-07-13T17:32:57;5.75;;;1.02;;
32172;SDS011;18679;45.190;5.722;2023-07-13T17:35:58;2.00;;;1.15;;
32172;SDS011;18679;45.190;5.722;2023-07-13T17:39:02;6.28;;;1.00;;
32172;SDS011;18679;45.190;5.722;2023-07-13T17:42:13;2.50;;;1.10;;
32172;SDS011;18679;45.190;5.722;2023-07-13T17:45:14;0.77;;;0.68;;
32172;SDS011;18679;45.190;5.722;2023-07-13T17:48:19;1.48;;;0.88;;
32172;SDS011;18679;45.190;5.722;2023-07-13T17:51:20;1.60;;;0.90;;
32172;SDS011;18679;45.190;5.722;2023-07-13T17:54:23;1.55;;;0.85;;
32172;SDS011;18679;45.190;5.722;2023-07-13T17:57:29;1.75;;;0.90;;
32172;SDS011;18679;45.190;5.722;2023-07-13T18:00:34;10.82;;;1.10;;
32172;SDS011;18679;45.190;5.722;2023-07-13T18:03:39;2.30;;;0.90;;
32172;SDS011;18679;45.190;5.722;2023-07-13T18:06:45;3.13;;;0.65;;
32172;SDS011;18679;45.190;5.722;2023-07-13T18:09:56;2.53;;;1.08;;
32172;SDS011;18679;45.190;5.722;2023-07-13T18:12:57;4.63;;;1.20;;
32172;SDS011;18679;45.190;5.722;2023-07-13T18:16:00;3.33;;;1.05;;
32172;SDS011;18679;45.190;5.722;2023-07-13T18:19:04;1.85;;;0.90;;
32172;SDS011;18679;45.190;5.722;2023-07-13T18:22:09;3.90;;;1.00;;
32172;SDS011;18679;45.190;5.722;2023-07-13T18:25:20;3.40;;;1.35;;
32172;SDS011;18679;45.190;5.722;2023-07-13T18:28:23;3.30;;;1.20;;
32172;SDS011;18679;45.190;5.722;2023-07-13T18:31:25;2.10;;;0.88;;
32172;SDS011;18679;45.190;5.722;2023-07-13T18:34:35;2.53;;;0.90;;
32172;SDS011;18679;45.190;5.722;2023-07-13T18:37:43;3.65;;;0.80;;
32172;SDS011;18679;45.190;5.722;2023-07-13T18:40:45;5.93;;;0.85;;
32172;SDS011;18679;45.190;5.722;2023-07-13T18:43:47;6.47;;;1.48;;